Main page
METAR-TAF:

METAR-TAF

Airports :

MoD Boscombe Down

Boscombe Down, England

latitude: 51-10N, longitude: 001-45W, elevation: 124 m

Current weather observation

The report was made 28 minutes ago, at 18:20 UTC
Wind 10 kt from the West
Temperature 6°C
Humidity 93%
Pressure 1024 hPa
Visibility 10 km or more

METAR: EGDM 291820Z AUTO 28010KT 9999 FEW021/// 06/05 Q1024

Time: 18:48 (18:48 UTC)


TAF: missing

Weather observations and forecasts of more than 4000 airports (METAR and TAF reports).

The available stations are represented by yellow and red dots on the map.

Hover mouse over dot to see the name of the station.

Then click to see weather observations and forecasts.

To change the map : click on the green buttons with a black cross to zoom in, on the green button with a dash to zoom out, or on the green arrows for adjacent maps.


METAR-TAF: